Time;durP1;ratioP1;P1;durP2;ratioP2;P2;SDS_P1;SDS_P2;PMS_P1;PMS_P2;Temp;Humidity;BMP_temperature;BMP_pressure;BME280_temperature;BME280_humidity;BME280_pressure;Samples;Min_cycle;Max_cycle;Signal;HPM_P1;HPM_P2
2021/07/31 00:01:06;;;;;;;39.60;12.00;;;;;;;24.88;80.13;100431.39;1713544;81;21086;-54
2021/07/31 00:03:33;;;;;;;35.33;12.35;;;;;;;24.84;80.66;100428.59;1715201;81;21106;-54
2021/07/31 00:06:01;;;;;;;27.13;12.23;;;;;;;24.84;80.80;100431.33;1716530;82;21479;-54
2021/07/31 00:08:31;;;;;;;33.95;11.35;;;;;;;24.86;80.60;100433.92;1715066;81;21967;-54
2021/07/31 00:10:59;;;;;;;25.97;11.78;;;;;;;24.82;80.53;100427.88;1712762;82;21174;-54
2021/07/31 00:13:27;;;;;;;35.65;12.45;;;;;;;24.79;80.73;100432.30;1677324;84;21456;-54
2021/07/31 00:15:54;;;;;;;29.67;12.90;;;;;;;24.75;80.78;100433.64;1664692;83;21012;-54
2021/07/31 00:18:23;;;;;;;23.87;11.63;;;;;;;24.74;81.27;100427.25;1678123;83;20992;-54
2021/07/31 00:20:51;;;;;;;40.83;13.55;;;;;;;24.78;81.67;100430.58;1666744;84;21953;-54
2021/07/31 00:23:18;;;;;;;38.90;13.22;;;;;;;24.81;81.29;100428.90;1675827;83;21022;-54
2021/07/31 00:25:45;;;;;;;40.48;13.83;;;;;;;24.77;81.24;100426.12;1685331;83;21126;-54
2021/07/31 00:28:15;;;;;;;47.00;13.78;;;;;;;24.71;81.54;100428.09;1654872;84;21107;-54
2021/07/31 00:30:42;;;;;;;46.35;14.25;;;;;;;24.66;81.95;100423.58;1659681;85;21071;-54
2021/07/31 00:33:11;;;;;;;46.63;12.68;;;;;;;24.59;82.38;100425.55;1659850;85;22210;-54
2021/07/31 00:35:38;;;;;;;28.70;12.60;;;;;;;24.58;82.79;100416.13;1664136;84;21118;-54
2021/07/31 00:38:05;;;;;;;28.80;13.22;;;;;;;24.56;83.15;100419.53;1658460;83;21600;-53
2021/07/31 00:40:34;;;;;;;34.05;14.28;;;;;;;24.50;83.83;100419.63;1728009;81;20954;-53
2021/07/31 00:43:07;;;;;;;37.25;13.68;;;;;;;24.44;84.15;100417.51;1731501;81;21579;-53
2021/07/31 00:45:36;;;;;;;48.92;13.75;;;;;;;24.42;84.23;100416.77;1716184;81;20955;-53
2021/07/31 00:48:04;;;;;;;45.35;13.93;;;;;;;24.38;84.37;100413.98;1723705;81;21058;-53
2021/07/31 00:50:34;;;;;;;51.30;15.55;;;;;;;24.32;84.76;100412.22;1719933;81;21083;-53
2021/07/31 00:53:01;;;;;;;44.45;13.78;;;;;;;24.30;84.97;100411.52;1726620;81;21042;-53
2021/07/31 00:55:29;;;;;;;41.00;14.70;;;;;;;24.28;84.45;100409.44;1719594;81;21509;-53
2021/07/31 00:57:58;;;;;;;41.48;14.43;;;;;;;24.25;84.53;100412.48;1730123;81;21103;-53
2021/07/31 01:00:35;;;;;;;33.18;14.13;;;;;;;24.23;84.70;100403.56;1723205;80;21440;-54
2021/07/31 01:03:03;;;;;;;34.83;13.08;;;;;;;24.21;84.77;100394.63;1725744;81;21034;-56
2021/07/31 01:05:31;;;;;;;42.95;13.60;;;;;;;24.15;84.52;100389.73;1723440;81;21138;-58
2021/07/31 01:07:59;;;;;;;49.33;14.25;;;;;;;24.07;84.77;100392.38;1723593;81;21098;-57
2021/07/31 01:10:27;;;;;;;65.12;15.23;;;;;;;23.94;85.13;100386.70;1719176;81;21158;-52
2021/07/31 01:12:56;;;;;;;62.60;17.98;;;;;;;23.87;85.55;100381.47;1716713;81;21495;-59
2021/07/31 01:15:23;;;;;;;90.65;18.92;;;;;;;23.80;85.46;100377.09;1725005;81;21005;-53
2021/07/31 01:17:51;;;;;;;91.40;21.17;;;;;;;23.74;85.06;100380.44;1719390;81;21643;-57
2021/07/31 01:20:19;;;;;;;109.07;21.48;;;;;;;23.66;84.92;100381.18;1723338;81;21016;-53
2021/07/31 01:22:50;;;;;;;69.75;17.45;;;;;;;23.59;84.87;100382.80;1724074;81;21130;-53
2021/07/31 01:25:17;;;;;;;66.28;18.35;;;;;;;23.54;85.07;100376.88;1727163;81;21082;-53
2021/07/31 01:27:45;;;;;;;52.75;15.88;;;;;;;23.49;85.51;100371.00;1725730;81;21094;-52
2021/07/31 01:30:13;;;;;;;57.25;18.05;;;;;;;23.46;85.27;100373.02;1730699;81;21050;-53
2021/07/31 01:32:39;;;;;;;39.27;14.90;;;;;;;23.48;84.99;100372.89;1718917;81;21520;-53
2021/07/31 01:35:08;;;;;;;57.80;17.23;;;;;;;23.51;84.66;100379.91;1717609;81;21116;-52
2021/07/31 01:37:35;;;;;;;40.45;18.05;;;;;;;23.55;84.46;100382.73;1725639;81;20975;-53
2021/07/31 01:40:04;;;;;;;39.75;20.20;;;;;;;23.62;84.10;100381.12;1709886;82;21047;-53
2021/07/31 01:42:31;;;;;;;39.70;17.82;;;;;;;23.70;83.34;100381.75;1719971;82;21159;-53
2021/07/31 01:44:59;;;;;;;33.63;19.65;;;;;;;23.77;82.77;100376.56;1729376;81;21094;-53
2021/07/31 01:47:26;;;;;;;45.15;18.60;;;;;;;23.82;82.22;100376.44;1728564;81;21105;-53
2021/07/31 01:50:03;;;;;;;50.43;18.73;;;;;;;23.86;81.48;100377.86;1723308;81;21067;-53
2021/07/31 01:52:32;;;;;;;40.60;18.65;;;;;;;23.91;80.42;100382.05;1721298;81;21054;-53
2021/07/31 01:54:59;;;;;;;44.65;18.02;;;;;;;23.97;80.33;100380.91;1718178;81;21030;-53
2021/07/31 01:57:29;;;;;;;82.05;21.27;;;;;;;23.99;80.16;100378.05;1721243;81;20955;-53
2021/07/31 02:00:11;;;;;;;146.15;23.52;;;;;;;23.99;80.29;100383.52;1718710;82;21146;-55
2021/07/31 02:02:41;;;;;;;115.40;21.73;;;;;;;23.98;80.37;100375.80;1718612;81;20992;-54
2021/07/31 02:05:10;;;;;;;120.42;20.52;;;;;;;23.97;80.34;100387.76;1728787;81;21126;-54
2021/07/31 02:07:42;;;;;;;102.27;19.62;;;;;;;23.96;80.25;100389.30;1728237;81;21027;-53
2021/07/31 02:10:10;;;;;;;74.45;15.58;;;;;;;23.96;80.48;100387.92;1733058;81;21071;-53
2021/07/31 02:12:36;;;;;;;59.95;15.38;;;;;;;23.97;79.55;100391.87;1725837;81;21693;-53
2021/07/31 02:15:07;;;;;;;38.65;15.78;;;;;;;24.01;78.65;100396.09;1729689;81;21706;-53
2021/07/31 02:17:35;;;;;;;44.53;15.63;;;;;;;24.06;78.31;100390.14;1706478;81;20992;-53
2021/07/31 02:20:04;;;;;;;44.90;17.12;;;;;;;24.08;78.19;100390.00;1725746;81;21039;-53
2021/07/31 02:22:33;;;;;;;31.87;16.57;;;;;;;24.09;78.27;100389.83;1719580;81;21495;-53
2021/07/31 02:25:20;;;;;;;35.75;17.82;;;;;;;24.12;78.36;100399.63;1715921;81;21104;-53
2021/07/31 02:27:55;;;;;;;48.75;18.65;;;;;;;24.10;78.60;100399.80;1673155;81;21075;-56
2021/07/31 02:30:25;;;;;;;46.37;19.57;;;;;;;24.08;78.86;100400.95;1719262;81;21647;-53
2021/07/31 02:32:58;;;;;;;57.33;19.42;;;;;;;24.05;79.00;100397.16;1730377;81;21054;-53
2021/07/31 02:35:33;;;;;;;44.70;17.17;;;;;;;23.99;79.06;100393.97;1732264;81;20938;-54
2021/07/31 02:38:13;;;;;;;29.10;14.35;;;;;;;23.97;79.14;100397.86;1726314;81;21883;-54
2021/07/31 02:40:40;;;;;;;22.45;13.13;;;;;;;23.97;79.10;100402.81;1720780;81;21099;-55
2021/07/31 02:43:07;;;;;;;18.70;12.25;;;;;;;24.01;79.04;100404.30;1722588;81;21035;-53
2021/07/31 02:45:36;;;;;;;31.68;18.57;;;;;;;24.06;78.85;100411.19;1739121;81;21055;-53
2021/07/31 02:48:05;;;;;;;29.55;13.62;;;;;;;24.09;78.35;100405.41;1724434;81;21073;-54
2021/07/31 02:50:34;;;;;;;20.30;13.30;;;;;;;24.13;77.94;100408.20;1726969;81;21010;-54
2021/07/31 02:53:09;;;;;;;24.52;12.60;;;;;;;24.22;77.84;100410.54;1727239;81;21070;-55
2021/07/31 02:55:36;;;;;;;27.62;12.58;;;;;;;24.31;77.36;100410.98;1726638;81;21048;-55
2021/07/31 02:58:03;;;;;;;33.67;13.35;;;;;;;24.42;76.90;100405.81;1731531;81;21006;-54
2021/07/31 03:00:31;;;;;;;21.37;12.55;;;;;;;24.54;76.41;100417.45;1727391;81;21062;-55
2021/07/31 03:02:59;;;;;;;21.85;11.55;;;;;;;24.60;75.85;100410.82;1700746;82;21114;-55
2021/07/31 03:05:26;;;;;;;22.22;11.10;;;;;;;24.71;75.39;100417.12;1709168;82;20952;-55
2021/07/31 03:07:54;;;;;;;21.23;13.10;;;;;;;24.84;74.25;100427.22;1710635;82;21018;-55
2021/07/31 03:10:21;;;;;;;20.85;13.00;;;;;;;24.99;73.19;100426.19;1708569;82;21059;-55
2021/07/31 03:12:50;;;;;;;22.13;12.73;;;;;;;25.02;73.01;100426.37;1728436;81;20999;-54
2021/07/31 03:15:17;;;;;;;13.35;10.70;;;;;;;24.97;72.73;100422.72;1729580;81;21530;-54
2021/07/31 03:17:44;;;;;;;17.02;10.72;;;;;;;24.97;71.92;100423.23;1715917;81;21710;-54
2021/07/31 03:20:13;;;;;;;25.15;13.03;;;;;;;25.02;71.04;100423.63;1720495;81;21049;-54
2021/07/31 03:22:41;;;;;;;22.93;12.30;;;;;;;25.10;70.91;100429.21;1718688;82;21014;-54
2021/07/31 03:25:10;;;;;;;26.00;13.90;;;;;;;25.13;70.79;100428.89;1720231;81;21047;-54
2021/07/31 03:27:40;;;;;;;17.75;11.15;;;;;;;25.16;70.28;100434.05;1719296;81;21804;-54
2021/07/31 03:30:10;;;;;;;18.62;11.65;;;;;;;25.21;70.10;100432.22;1723125;81;21031;-55
2021/07/31 03:32:39;;;;;;;15.88;10.60;;;;;;;25.28;69.28;100437.91;1726736;81;21062;-53
2021/07/31 03:35:08;;;;;;;35.68;14.18;;;;;;;25.36;68.66;100439.88;1694193;82;21010;-55
2021/07/31 03:37:37;;;;;;;25.48;13.40;;;;;;;25.51;68.86;100431.46;1723913;81;21107;-54
2021/07/31 03:40:07;;;;;;;26.57;14.05;;;;;;;25.61;67.86;100428.62;1722457;80;21110;-54
2021/07/31 03:42:34;;;;;;;18.45;12.63;;;;;;;25.67;67.54;100428.50;1706047;83;21488;-54
2021/07/31 03:45:02;;;;;;;32.90;13.35;;;;;;;25.72;67.04;100426.97;1729028;81;21058;-54
2021/07/31 03:47:29;;;;;;;22.62;11.65;;;;;;;25.77;66.47;100432.52;1725787;81;21135;-54
2021/07/31 03:49:57;;;;;;;24.63;12.82;;;;;;;25.81;65.56;100439.40;1735852;81;21046;-54
2021/07/31 03:52:24;;;;;;;28.10;12.55;;;;;;;25.86;65.83;100434.28;1697364;83;21775;-54
2021/07/31 03:54:54;;;;;;;30.82;12.37;;;;;;;25.92;65.41;100436.36;1733308;81;21503;-54
2021/07/31 03:57:21;;;;;;;24.60;11.73;;;;;;;26.00;65.11;100445.17;1717896;81;21553;-53
2021/07/31 03:59:48;;;;;;;29.07;12.88;;;;;;;26.07;64.25;100444.02;1721533;81;21159;-54
2021/07/31 04:02:16;;;;;;;42.62;13.98;;;;;;;26.14;64.16;100445.07;1724638;81;21100;-54
2021/07/31 04:04:43;;;;;;;47.33;15.15;;;;;;;26.17;64.60;100436.53;1714069;81;21067;-59
2021/07/31 04:07:12;;;;;;;46.35;15.32;;;;;;;26.22;65.34;100442.42;1727425;81;21320;-57
2021/07/31 04:09:57;;;;;;;59.98;15.72;;;;;;;26.31;65.22;100448.81;1725568;81;21118;-53
2021/07/31 04:12:43;;;;;;;51.92;14.30;;;;;;;26.41;64.31;100448.66;1720839;81;20927;-59
2021/07/31 04:15:30;;;;;;;46.33;13.72;;;;;;;26.50;63.57;100451.80;1713130;82;20933;-58
2021/07/31 04:17:58;;;;;;;59.38;16.93;;;;;;;26.63;64.15;100450.45;1718325;81;21132;-57
2021/07/31 04:20:26;;;;;;;43.68;15.10;;;;;;;26.78;63.66;100462.55;1731093;81;21380;-57
2021/07/31 04:23:27;;;;;;;46.20;16.30;;;;;;;26.95;63.24;100456.59;1718820;81;21036;-58
2021/07/31 04:25:55;;;;;;;39.40;14.18;;;;;;;27.10;63.30;100459.57;1684071;83;21598;-58
2021/07/31 04:28:22;;;;;;;42.53;12.73;;;;;;;27.29;63.11;100465.75;1684429;83;21098;-58
2021/07/31 04:30:49;;;;;;;47.13;14.35;;;;;;;27.42;61.06;100468.03;1724405;81;21826;-58
2021/07/31 04:33:16;;;;;;;36.40;13.98;;;;;;;27.55;60.72;100466.16;1722680;81;21032;-58
2021/07/31 04:35:43;;;;;;;34.10;13.05;;;;;;;27.69;60.01;100472.33;1721119;81;21016;-60
2021/07/31 04:38:10;;;;;;;39.15;12.47;;;;;;;27.83;59.11;100468.55;1725057;81;21615;-57
2021/07/31 04:40:37;;;;;;;15.40;9.50;;;;;;;27.96;58.05;100476.27;1729896;81;21067;-57
2021/07/31 04:43:05;;;;;;;22.90;10.10;;;;;;;28.09;55.25;100468.83;1714836;81;21121;-57
2021/07/31 04:45:32;;;;;;;22.93;9.75;;;;;;;28.23;54.11;100473.66;1689610;83;21426;-57
2021/07/31 04:47:59;;;;;;;25.30;10.03;;;;;;;28.40;53.13;100481.34;1734396;81;21134;-58
2021/07/31 04:50:26;;;;;;;33.10;10.05;;;;;;;28.54;51.84;100481.65;1734357;81;21015;-57
2021/07/31 04:52:53;;;;;;;22.07;9.80;;;;;;;28.65;51.71;100481.77;1722591;81;21039;-57
2021/07/31 04:55:20;;;;;;;39.42;11.73;;;;;;;28.76;50.88;100489.63;1689549;83;21573;-58
2021/07/31 04:57:47;;;;;;;16.62;8.10;;;;;;;28.84;50.95;100486.85;1717949;81;21013;-58
2021/07/31 05:00:15;;;;;;;18.50;8.90;;;;;;;28.96;49.71;100489.22;1709204;81;21508;-58
2021/07/31 05:02:42;;;;;;;17.98;8.48;;;;;;;29.06;48.50;100492.59;1724384;81;21425;-58
2021/07/31 05:05:10;;;;;;;16.95;8.23;;;;;;;29.19;48.10;100498.05;1734038;81;21039;-57
2021/07/31 05:07:46;;;;;;;27.55;9.15;;;;;;;29.31;47.78;100496.59;1720802;81;21800;-58
2021/07/31 05:13:07;;;;;;;14.80;7.90;;;;;;;29.54;47.34;100486.09;1693677;83;21100;-58
2021/07/31 05:15:37;;;;;;;14.78;8.35;;;;;;;29.64;46.55;100489.44;1687514;83;21132;-58
2021/07/31 05:18:05;;;;;;;16.52;7.80;;;;;;;29.77;46.28;100492.11;1716812;81;21065;-58
2021/07/31 05:20:33;;;;;;;17.67;7.92;;;;;;;29.90;46.03;100496.45;1724394;81;21057;-58
2021/07/31 05:23:01;;;;;;;23.12;8.53;;;;;;;30.03;45.71;100494.98;1718061;81;21064;-58
2021/07/31 05:25:28;;;;;;;19.37;9.13;;;;;;;30.12;45.87;100492.46;1728757;81;21113;-57
2021/07/31 05:27:55;;;;;;;35.48;10.13;;;;;;;30.20;46.10;100495.66;1717608;81;21099;-58
2021/07/31 05:30:22;;;;;;;35.92;10.68;;;;;;;30.30;46.29;100488.80;1711566;82;21103;-57
2021/07/31 05:32:49;;;;;;;21.93;9.60;;;;;;;30.42;46.51;100492.48;1713545;81;21418;-58
2021/07/31 05:35:16;;;;;;;22.17;8.70;;;;;;;30.46;45.87;100489.67;1713344;82;21390;-58
2021/07/31 05:37:43;;;;;;;16.93;7.85;;;;;;;30.54;45.78;100493.70;1733253;81;21062;-58
2021/07/31 05:40:11;;;;;;;19.17;7.72;;;;;;;30.65;45.23;100491.00;1696826;83;21063;-58
2021/07/31 05:42:40;;;;;;;14.78;7.70;;;;;;;30.76;45.01;100491.58;1732483;81;21425;-58
2021/07/31 05:45:08;;;;;;;11.97;7.70;;;;;;;30.84;44.35;100486.79;1702235;81;21100;-58
2021/07/31 05:47:35;;;;;;;17.07;7.25;;;;;;;30.87;43.86;100489.67;1683962;83;21073;-57
2021/07/31 05:50:05;;;;;;;11.60;8.05;;;;;;;30.85;43.72;100494.04;1732865;81;21051;-58
2021/07/31 05:52:34;;;;;;;16.12;7.67;;;;;;;30.92;43.57;100500.17;1687823;83;21068;-58
2021/07/31 05:55:05;;;;;;;11.43;7.17;;;;;;;30.99;43.42;100496.95;1721059;81;21142;-58
2021/07/31 05:57:32;;;;;;;9.85;7.50;;;;;;;30.99;43.89;100495.56;1726901;81;21063;-57
2021/07/31 05:59:59;;;;;;;13.28;7.58;;;;;;;30.94;44.32;100496.68;1713491;82;21017;-58
2021/07/31 06:02:26;;;;;;;16.27;7.90;;;;;;;30.91;44.91;100497.91;1720103;81;21535;-57
2021/07/31 06:04:53;;;;;;;13.85;8.50;;;;;;;30.95;45.38;100495.63;1696626;83;21131;-58
2021/07/31 06:07:20;;;;;;;16.52;7.70;;;;;;;31.00;45.67;100501.42;1690441;83;21046;-58
2021/07/31 06:09:50;;;;;;;12.10;8.30;;;;;;;31.01;46.24;100504.02;1700286;82;21972;-58
2021/07/31 06:12:21;;;;;;;16.85;8.65;;;;;;;31.07;46.81;100499.61;1727264;81;21066;-57
2021/07/31 06:14:48;;;;;;;12.47;8.05;;;;;;;31.15;46.28;100503.63;1718183;81;21055;-58
2021/07/31 06:17:14;;;;;;;13.70;8.33;;;;;;;31.21;46.48;100502.54;1719614;81;21134;-58
2021/07/31 06:19:41;;;;;;;14.40;8.45;;;;;;;31.26;47.16;100502.80;1720171;81;21064;-58
2021/07/31 06:22:09;;;;;;;13.55;8.10;;;;;;;31.35;47.19;100506.30;1714296;81;21090;-57
2021/07/31 06:24:37;;;;;;;15.03;7.97;;;;;;;31.40;46.29;100499.13;1689776;83;21296;-57
2021/07/31 06:27:05;;;;;;;18.15;7.90;;;;;;;31.49;46.17;100508.67;1729317;81;21039;-57
2021/07/31 06:29:33;;;;;;;11.90;7.85;;;;;;;31.55;46.24;100506.52;1687444;83;21837;-58
2021/07/31 06:32:05;;;;;;;19.17;8.18;;;;;;;31.61;46.25;100508.48;1724576;81;21050;-59
2021/07/31 06:34:32;;;;;;;16.25;7.90;;;;;;;31.65;46.75;100502.86;1740914;81;21084;-59
2021/07/31 06:36:59;;;;;;;26.12;8.13;;;;;;;31.69;47.29;100505.56;1715449;82;21146;-57
2021/07/31 06:39:27;;;;;;;14.83;7.67;;;;;;;31.75;46.54;100510.00;1727051;80;21059;-57
2021/07/31 06:41:54;;;;;;;15.00;8.10;;;;;;;31.79;46.26;100511.34;1674339;83;21087;-59
2021/07/31 06:44:21;;;;;;;14.55;8.63;;;;;;;31.83;46.24;100504.33;1668547;84;21095;-54
2021/07/31 06:46:48;;;;;;;15.40;8.45;;;;;;;31.85;46.38;100505.86;1699075;82;21112;-59
2021/07/31 06:49:15;;;;;;;15.63;7.90;;;;;;;31.89;46.35;100510.99;1691750;82;21061;-55
2021/07/31 06:51:44;;;;;;;14.95;8.85;;;;;;;31.93;46.69;100505.37;1673394;83;21088;-55
2021/07/31 06:54:11;;;;;;;12.03;7.17;;;;;;;31.97;46.92;100503.39;1679891;83;21752;-59
2021/07/31 06:56:38;;;;;;;17.70;8.25;;;;;;;32.05;46.71;100509.28;1674705;83;21050;-54
2021/07/31 06:59:06;;;;;;;15.08;7.85;;;;;;;32.12;46.11;100507.95;1665197;84;21215;-55
2021/07/31 07:01:33;;;;;;;14.65;8.40;;;;;;;32.20;46.58;100513.36;1656613;86;21008;-54
2021/07/31 07:04:00;;;;;;;14.00;7.97;;;;;;;32.25;46.83;100509.95;1654524;86;21126;-54
2021/07/31 07:06:27;;;;;;;16.02;9.45;;;;;;;32.26;47.09;100513.92;1659040;85;21030;-54
2021/07/31 07:08:54;;;;;;;18.10;8.90;;;;;;;32.28;47.40;100512.34;1670189;83;21096;-55
2021/07/31 07:11:21;;;;;;;15.75;8.05;;;;;;;32.34;47.30;100512.06;1659662;85;21562;-54
2021/07/31 07:13:48;;;;;;;11.08;8.45;;;;;;;32.37;47.41;100506.98;1656497;84;21070;-54
2021/07/31 07:16:16;;;;;;;14.33;9.05;;;;;;;32.41;47.55;100510.21;1658550;85;21529;-55
2021/07/31 07:18:43;;;;;;;17.30;9.38;;;;;;;32.40;48.23;100517.66;1666752;84;21055;-55
2021/07/31 07:21:10;;;;;;;13.00;8.93;;;;;;;32.40;48.71;100512.66;1659034;84;21080;-55
2021/07/31 07:23:50;;;;;;;12.88;8.25;;;;;;;32.37;48.28;100507.50;1656499;84;21474;-54
2021/07/31 07:26:17;;;;;;;13.55;8.48;;;;;;;32.33;47.45;100508.45;1710880;82;21114;-54
2021/07/31 07:28:44;;;;;;;20.45;9.08;;;;;;;32.33;47.57;100516.78;1709857;82;21011;-53
2021/07/31 07:31:12;;;;;;;13.10;7.53;;;;;;;32.36;47.97;100527.46;1712281;82;21161;-53
2021/07/31 07:33:41;;;;;;;13.62;8.93;;;;;;;32.36;46.95;100515.48;1688613;83;21020;-54
2021/07/31 07:36:16;;;;;;;12.50;7.92;;;;;;;32.38;47.05;100511.98;1661013;84;21079;-54
2021/07/31 07:38:44;;;;;;;14.10;7.90;;;;;;;32.42;46.51;100517.47;1687438;83;21517;-54
2021/07/31 07:41:12;;;;;;;12.80;8.10;;;;;;;32.44;47.06;100517.58;1672418;82;22315;-55
2021/07/31 07:43:39;;;;;;;11.65;8.05;;;;;;;32.44;47.71;100515.34;1703709;82;20992;-54
2021/07/31 07:46:06;;;;;;;17.35;8.45;;;;;;;32.42;48.01;100517.47;1703656;82;21086;-54
2021/07/31 07:48:33;;;;;;;14.30;8.45;;;;;;;32.39;47.94;100513.72;1713475;82;21101;-54
2021/07/31 07:51:00;;;;;;;11.45;8.03;;;;;;;32.36;48.38;100515.48;1708627;82;22120;-54
2021/07/31 07:53:27;;;;;;;12.82;7.90;;;;;;;32.30;48.44;100520.77;1712561;82;21090;-54
2021/07/31 07:55:54;;;;;;;14.30;8.10;;;;;;;32.24;48.63;100513.27;1709927;82;21039;-55
2021/07/31 07:58:21;;;;;;;13.20;8.53;;;;;;;32.22;48.74;100520.07;1709682;82;21042;-54
2021/07/31 08:00:50;;;;;;;15.30;8.53;;;;;;;32.20;49.62;100520.30;1707190;82;21131;-54
2021/07/31 08:03:17;;;;;;;14.38;8.45;;;;;;;32.14;49.78;100517.80;1709182;82;21484;-54
2021/07/31 08:05:44;;;;;;;12.25;8.55;;;;;;;32.09;50.07;100514.78;1709360;82;21049;-54
2021/07/31 08:08:11;;;;;;;10.03;7.62;;;;;;;32.08;50.19;100516.34;1687668;82;21091;-54
2021/07/31 08:10:38;;;;;;;11.83;8.43;;;;;;;32.07;50.49;100509.09;1669654;84;21059;-55
2021/07/31 08:13:07;;;;;;;12.60;8.15;;;;;;;32.07;50.90;100514.64;1698973;82;21095;-54
2021/07/31 08:15:35;;;;;;;13.55;9.40;;;;;;;32.03;50.59;100507.79;1720989;80;21540;-55
2021/07/31 08:18:02;;;;;;;16.62;8.70;;;;;;;32.03;51.11;100514.72;1732869;81;21405;-55
2021/07/31 08:20:31;;;;;;;11.55;8.40;;;;;;;32.03;51.16;100516.11;1721738;81;20976;-53
2021/07/31 08:22:58;;;;;;;12.55;7.90;;;;;;;32.01;51.33;100508.85;1714076;81;21099;-53
2021/07/31 08:25:36;;;;;;;14.15;7.80;;;;;;;31.99;50.19;100518.41;1701689;81;21135;-54
2021/07/31 08:28:04;;;;;;;13.58;7.97;;;;;;;31.94;50.59;100513.47;1716768;82;21026;-56
2021/07/31 08:30:31;;;;;;;11.53;7.70;;;;;;;31.90;50.57;100513.55;1693541;83;21140;-56
2021/07/31 08:32:58;;;;;;;11.55;8.63;;;;;;;31.89;50.23;100509.06;1720973;81;21757;-55
2021/07/31 08:35:25;;;;;;;16.77;7.58;;;;;;;31.88;51.02;100510.12;1713625;81;21050;-55
2021/07/31 08:37:52;;;;;;;14.15;7.75;;;;;;;31.85;50.46;100513.30;1695515;83;21588;-55
2021/07/31 08:40:19;;;;;;;11.97;7.90;;;;;;;31.85;50.01;100517.45;1706758;82;21063;-55
2021/07/31 08:42:46;;;;;;;11.78;7.17;;;;;;;31.87;49.41;100507.02;1642001;84;21060;-55
2021/07/31 08:45:16;;;;;;;9.85;8.33;;;;;;;31.88;48.50;100512.05;1708848;81;21101;-55
2021/07/31 08:47:43;;;;;;;17.37;8.78;;;;;;;31.88;49.13;100511.51;1726114;81;21062;-54
2021/07/31 08:50:11;;;;;;;14.35;7.62;;;;;;;31.88;49.06;100511.51;1663666;83;21154;-54
2021/07/31 08:52:43;;;;;;;9.65;7.70;;;;;;;31.88;49.14;100514.28;1684286;83;21075;-56
2021/07/31 08:55:10;;;;;;;14.00;7.92;;;;;;;31.88;48.99;100510.12;1685308;81;21118;-54
2021/07/31 08:57:37;;;;;;;11.97;7.87;;;;;;;31.86;49.75;100508.08;1725221;81;20980;-54
2021/07/31 09:00:06;;;;;;;10.38;6.70;;;;;;;31.82;49.88;100504.00;1725123;81;20967;-54
2021/07/31 09:02:43;;;;;;;9.83;7.30;;;;;;;31.82;48.34;100509.00;1724880;81;21089;-54
2021/07/31 09:05:12;;;;;;;10.28;7.08;;;;;;;31.86;48.19;100503.92;1725355;81;21107;-54
2021/07/31 09:07:39;;;;;;;14.03;7.10;;;;;;;31.89;47.30;100504.91;1717276;81;21015;-54
2021/07/31 09:10:25;;;;;;;13.75;8.10;;;;;;;31.90;48.35;100497.46;1726148;81;21043;-54
2021/07/31 09:13:08;;;;;;;12.85;8.33;;;;;;;31.94;49.71;100508.47;1714792;81;21109;-54
2021/07/31 09:15:47;;;;;;;11.73;6.70;;;;;;;31.94;48.84;100498.77;1718112;81;21105;-55
2021/07/31 09:18:29;;;;;;;14.38;7.35;;;;;;;31.90;47.46;100502.46;1717446;81;21056;-54
2021/07/31 09:21:12;;;;;;;11.30;6.90;;;;;;;31.90;48.22;100501.08;1718152;81;21063;-54
2021/07/31 09:23:48;;;;;;;11.95;8.08;;;;;;;31.91;47.67;100500.56;1723400;81;21055;-53
2021/07/31 09:26:21;;;;;;;10.48;7.80;;;;;;;31.89;49.14;100502.13;1722775;81;21527;-53
2021/07/31 09:29:08;;;;;;;11.85;7.10;;;;;;;31.88;48.61;100503.19;1728760;81;21068;-54
2021/07/31 09:31:51;;;;;;;17.32;7.17;;;;;;;31.87;48.72;100502.86;1728743;81;21012;-54
2021/07/31 09:34:45;;;;;;;10.18;6.70;;;;;;;31.85;48.58;100503.59;1719298;81;21113;-53
2021/07/31 09:37:23;;;;;;;11.48;8.50;;;;;;;31.85;48.25;100503.59;1722805;82;21598;-55
2021/07/31 09:39:56;;;;;;;9.83;7.72;;;;;;;31.81;49.96;100510.61;1724507;81;20979;-54
2021/07/31 09:42:34;;;;;;;10.78;7.90;;;;;;;31.77;49.68;100505.98;1723557;81;21128;-54
2021/07/31 09:45:09;;;;;;;14.10;7.58;;;;;;;31.70;51.07;100506.43;1724938;80;21548;-56
2021/07/31 09:47:36;;;;;;;10.25;8.10;;;;;;;31.61;51.00;100502.07;1721985;81;21110;-55
2021/07/31 09:50:04;;;;;;;9.68;7.17;;;;;;;31.54;52.18;100500.65;1728987;81;21638;-54
2021/07/31 09:52:33;;;;;;;12.00;6.87;;;;;;;31.48;52.04;100499.52;1718869;81;21074;-54
2021/07/31 09:54:59;;;;;;;10.88;7.42;;;;;;;31.42;50.65;100493.41;1720594;81;21515;-54
2021/07/31 09:57:28;;;;;;;8.10;7.30;;;;;;;31.40;52.79;100500.51;1729611;81;21496;-54
2021/07/31 09:59:59;;;;;;;9.08;7.85;;;;;;;31.39;53.04;100499.31;1729293;81;21070;-54
2021/07/31 10:02:30;;;;;;;11.12;6.33;;;;;;;31.39;53.87;100497.41;1723839;81;21484;-54
2021/07/31 10:04:57;;;;;;;9.58;6.60;;;;;;;31.35;52.13;100503.53;1721977;81;20992;-54
2021/07/31 10:07:24;;;;;;;11.70;6.37;;;;;;;31.35;52.91;100494.71;1730279;81;22400;-60
2021/07/31 10:09:58;;;;;;;7.55;6.85;;;;;;;31.35;52.84;100491.07;1719574;81;21075;-59
2021/07/31 10:12:26;;;;;;;9.23;6.75;;;;;;;31.30;53.85;100486.15;1667150;84;21066;-59
2021/07/31 10:14:52;;;;;;;12.68;6.85;;;;;;;31.23;54.42;100479.66;1670341;84;21157;-59
2021/07/31 10:17:28;;;;;;;8.38;5.58;;;;;;;31.14;53.46;100481.16;1671034;84;21155;-59
2021/07/31 10:19:55;;;;;;;8.23;5.85;;;;;;;31.05;52.11;100476.78;1660620;84;21125;-59
2021/07/31 10:22:43;;;;;;;7.85;5.33;;;;;;;30.99;52.22;100477.57;1663726;85;21042;-59
2021/07/31 10:25:16;;;;;;;10.45;6.10;;;;;;;30.93;50.49;100478.36;1663857;84;21115;-58
2021/07/31 10:27:45;;;;;;;12.90;6.22;;;;;;;30.86;51.49;100472.23;1669005;84;21058;-59
2021/07/31 10:30:34;;;;;;;11.85;6.37;;;;;;;30.82;53.22;100471.42;1665678;84;21549;-60
2021/07/31 10:33:02;;;;;;;8.38;5.70;;;;;;;30.75;53.08;100474.10;1669699;84;21138;-60
2021/07/31 10:35:35;;;;;;;8.80;6.72;;;;;;;30.66;52.07;100465.59;1666225;84;21553;-60
2021/07/31 10:38:08;;;;;;;7.08;5.87;;;;;;;30.64;53.90;100461.63;1670507;84;21054;-59
2021/07/31 10:40:42;;;;;;;6.97;6.28;;;;;;;30.61;54.44;100462.02;1667969;82;21009;-59
2021/07/31 10:43:13;;;;;;;8.63;5.85;;;;;;;30.57;52.30;100464.27;1664986;84;21142;-60
2021/07/31 10:45:40;;;;;;;10.80;6.22;;;;;;;30.52;51.64;100457.08;1695725;82;21418;-59
2021/07/31 10:48:28;;;;;;;9.93;6.10;;;;;;;30.54;53.31;100464.66;1714001;82;21060;-60
2021/07/31 10:50:56;;;;;;;11.45;6.40;;;;;;;30.56;52.94;100468.63;1718606;82;21051;-59
2021/07/31 10:53:25;;;;;;;9.98;5.90;;;;;;;30.52;53.16;100465.38;1717104;82;21480;-59
2021/07/31 10:55:57;;;;;;;6.85;6.10;;;;;;;30.51;52.04;100466.43;1701286;82;21440;-58
2021/07/31 10:58:24;;;;;;;11.68;6.22;;;;;;;30.50;53.01;100469.38;1708043;82;21877;-58
2021/07/31 11:00:53;;;;;;;6.15;5.55;;;;;;;30.46;52.62;100467.55;1703828;82;21102;-59
2021/07/31 11:03:27;;;;;;;9.53;6.30;;;;;;;30.42;53.24;100468.98;1727128;82;21122;-58
2021/07/31 11:06:04;;;;;;;8.20;5.75;;;;;;;30.39;54.66;100458.28;1732028;81;21067;-58
2021/07/31 11:08:31;;;;;;;10.28;6.00;;;;;;;30.41;55.38;100462.58;1723057;82;21102;-58
2021/07/31 11:11:08;;;;;;;10.98;6.33;;;;;;;30.43;53.57;100461.86;1708369;82;21121;-58
2021/07/31 11:13:40;;;;;;;9.38;6.00;;;;;;;30.47;53.71;100462.34;1736545;81;21412;-59
2021/07/31 11:16:17;;;;;;;7.53;6.20;;;;;;;30.48;54.51;100457.14;1727895;81;21519;-59
2021/07/31 11:18:47;;;;;;;8.80;5.53;;;;;;;30.49;51.48;100457.47;1726786;81;21011;-59
2021/07/31 11:21:26;;;;;;;12.18;5.80;;;;;;;30.49;50.15;100447.80;1719675;81;21336;-59
2021/07/31 11:24:02;;;;;;;8.18;5.92;;;;;;;30.48;50.54;100440.55;1710676;81;21519;-59
2021/07/31 11:26:40;;;;;;;12.90;5.65;;;;;;;30.47;50.19;100438.84;1716073;82;21070;-60
2021/07/31 11:29:22;;;;;;;8.78;6.08;;;;;;;30.49;50.83;100458.86;1718416;81;21091;-59